sensor_id;sensor_type;location;lat;lon;timestamp;temperature;humidity
55331;DHT22;58851;42.984;20.336;2023-04-03T00:01:35;179.60;6502.40
55331;DHT22;58851;42.984;20.336;2023-04-03T00:04:04;179.70;6502.40
55331;DHT22;58851;42.984;20.336;2023-04-03T00:06:31;179.70;6502.40
55331;DHT22;58851;42.984;20.336;2023-04-03T00:08:56;179.80;6502.40
55331;DHT22;58851;42.984;20.336;2023-04-03T00:11:22;179.80;6502.40
55331;DHT22;58851;42.984;20.336;2023-04-03T00:13:49;179.90;6502.40
55331;DHT22;58851;42.984;20.336;2023-04-03T00:16:15;179.90;6502.40
55331;DHT22;58851;42.984;20.336;2023-04-03T00:18:41;179.90;6502.40
55331;DHT22;58851;42.984;20.336;2023-04-03T00:21:09;179.90;6502.40
55331;DHT22;58851;42.984;20.336;2023-04-03T00:23:35;179.90;6502.40
55331;DHT22;58851;42.984;20.336;2023-04-03T00:26:01;179.90;6502.40
55331;DHT22;58851;42.984;20.336;2023-04-03T00:28:27;179.80;6502.40
55331;DHT22;58851;42.984;20.336;2023-04-03T00:30:52;179.80;6502.40
55331;DHT22;58851;42.984;20.336;2023-04-03T00:33:18;179.90;6502.40
55331;DHT22;58851;42.984;20.336;2023-04-03T00:35:47;179.90;6502.40
55331;DHT22;58851;42.984;20.336;2023-04-03T00:38:14;179.80;6502.40
55331;DHT22;58851;42.984;20.336;2023-04-03T00:40:43;179.70;6502.40
55331;DHT22;58851;42.984;20.336;2023-04-03T00:43:22;179.70;6502.40
55331;DHT22;58851;42.984;20.336;2023-04-03T00:45:53;179.80;6502.40
55331;DHT22;58851;42.984;20.336;2023-04-03T00:50:52;179.90;6502.40
55331;DHT22;58851;42.984;20.336;2023-04-03T00:53:25;179.90;6502.40
55331;DHT22;58851;42.984;20.336;2023-04-03T00:55:54;179.90;6502.40
55331;DHT22;58851;42.984;20.336;2023-04-03T00:58:25;179.90;6502.40
55331;DHT22;58851;42.984;20.336;2023-04-03T01:00:55;180.00;6502.40
55331;DHT22;58851;42.984;20.336;2023-04-03T01:03:24;180.00;6502.40
55331;DHT22;58851;42.984;20.336;2023-04-03T01:05:50;179.90;6502.40
55331;DHT22;58851;42.984;20.336;2023-04-03T01:08:16;179.90;6502.40
55331;DHT22;58851;42.984;20.336;2023-04-03T01:10:43;179.70;6502.40
55331;DHT22;58851;42.984;20.336;2023-04-03T01:13:30;179.70;6502.40
55331;DHT22;58851;42.984;20.336;2023-04-03T01:15:56;179.70;6502.40
55331;DHT22;58851;42.984;20.336;2023-04-03T01:18:23;179.70;6502.40
55331;DHT22;58851;42.984;20.336;2023-04-03T01:23:27;179.60;6502.40
55331;DHT22;58851;42.984;20.336;2023-04-03T01:25:56;179.60;6502.40
55331;DHT22;58851;42.984;20.336;2023-04-03T01:33:34;179.40;6502.40
55331;DHT22;58851;42.984;20.336;2023-04-03T01:36:01;179.40;6502.40
55331;DHT22;58851;42.984;20.336;2023-04-03T01:38:27;179.30;6502.40
55331;DHT22;58851;42.984;20.336;2023-04-03T01:40:52;179.30;6502.40
55331;DHT22;58851;42.984;20.336;2023-04-03T01:43:18;179.30;6502.40
55331;DHT22;58851;42.984;20.336;2023-04-03T01:45:44;179.30;460.80
55331;DHT22;58851;42.984;20.336;2023-04-03T01:48:12;179.30;384.00
55331;DHT22;58851;42.984;20.336;2023-04-03T01:50:38;179.30;563.20
55331;DHT22;58851;42.984;20.336;2023-04-03T01:53:04;179.20;6502.40
55331;DHT22;58851;42.984;20.336;2023-04-03T01:55:30;179.20;6502.40
55331;DHT22;58851;42.984;20.336;2023-04-03T01:57:56;179.20;6502.40
55331;DHT22;58851;42.984;20.336;2023-04-03T02:00:21;154.50;6502.40
55331;DHT22;58851;42.984;20.336;2023-04-03T02:02:47;154.50;6502.40
55331;DHT22;58851;42.984;20.336;2023-04-03T02:05:13;154.40;6502.40
55331;DHT22;58851;42.984;20.336;2023-04-03T02:07:39;154.40;6502.40
55331;DHT22;58851;42.984;20.336;2023-04-03T02:10:05;154.40;6502.40
55331;DHT22;58851;42.984;20.336;2023-04-03T02:12:31;154.40;6502.40
55331;DHT22;58851;42.984;20.336;2023-04-03T02:14:56;154.50;6502.40
55331;DHT22;58851;42.984;20.336;2023-04-03T02:17:22;154.50;6502.40
55331;DHT22;58851;42.984;20.336;2023-04-03T02:19:48;179.20;128.00
55331;DHT22;58851;42.984;20.336;2023-04-03T02:22:14;179.20;128.00
55331;DHT22;58851;42.984;20.336;2023-04-03T02:24:39;179.30;384.00
55331;DHT22;58851;42.984;20.336;2023-04-03T02:27:05;179.30;6502.40
55331;DHT22;58851;42.984;20.336;2023-04-03T02:29:31;179.30;6502.40
55331;DHT22;58851;42.984;20.336;2023-04-03T02:31:57;179.30;332.80
55331;DHT22;58851;42.984;20.336;2023-04-03T02:34:23;179.30;384.00
55331;DHT22;58851;42.984;20.336;2023-04-03T02:36:49;179.30;128.00
55331;DHT22;58851;42.984;20.336;2023-04-03T02:39:15;179.40;6502.40
55331;DHT22;58851;42.984;20.336;2023-04-03T02:41:41;179.40;6502.40
55331;DHT22;58851;42.984;20.336;2023-04-03T02:44:11;179.40;204.80
55331;DHT22;58851;42.984;20.336;2023-04-03T02:46:37;179.50;230.40
55331;DHT22;58851;42.984;20.336;2023-04-03T02:49:03;179.50;153.60
55331;DHT22;58851;42.984;20.336;2023-04-03T02:51:29;179.40;435.20
55331;DHT22;58851;42.984;20.336;2023-04-03T02:53:55;179.40;435.20
55331;DHT22;58851;42.984;20.336;2023-04-03T02:56:21;179.50;153.60
55331;DHT22;58851;42.984;20.336;2023-04-03T02:58:47;179.50;128.00
55331;DHT22;58851;42.984;20.336;2023-04-03T03:01:14;179.50;128.00
55331;DHT22;58851;42.984;20.336;2023-04-03T03:03:40;179.40;153.60
55331;DHT22;58851;42.984;20.336;2023-04-03T03:06:12;179.40;409.60
55331;DHT22;58851;42.984;20.336;2023-04-03T03:08:38;179.50;153.60
55331;DHT22;58851;42.984;20.336;2023-04-03T03:11:04;179.50;128.00
55331;DHT22;58851;42.984;20.336;2023-04-03T03:13:31;179.50;6502.40
55331;DHT22;58851;42.984;20.336;2023-04-03T03:15:57;179.60;6502.40
55331;DHT22;58851;42.984;20.336;2023-04-03T03:18:23;179.60;6502.40
55331;DHT22;58851;42.984;20.336;2023-04-03T03:20:55;179.70;6528.00
55331;DHT22;58851;42.984;20.336;2023-04-03T03:23:22;179.70;6528.00
55331;DHT22;58851;42.984;20.336;2023-04-03T03:25:48;179.70;6502.40
55331;DHT22;58851;42.984;20.336;2023-04-03T03:28:14;179.70;6502.40
55331;DHT22;58851;42.984;20.336;2023-04-03T03:30:40;179.70;6502.40
55331;DHT22;58851;42.984;20.336;2023-04-03T03:33:06;179.70;6502.40
55331;DHT22;58851;42.984;20.336;2023-04-03T03:35:32;179.70;6502.40
55331;DHT22;58851;42.984;20.336;2023-04-03T03:37:58;179.70;6502.40
55331;DHT22;58851;42.984;20.336;2023-04-03T03:40:24;179.70;6502.40
55331;DHT22;58851;42.984;20.336;2023-04-03T03:42:50;179.70;6502.40
55331;DHT22;58851;42.984;20.336;2023-04-03T03:45:16;179.70;6502.40
55331;DHT22;58851;42.984;20.336;2023-04-03T03:47:41;179.70;6502.40
55331;DHT22;58851;42.984;20.336;2023-04-03T03:50:08;179.70;6502.40
55331;DHT22;58851;42.984;20.336;2023-04-03T03:52:33;179.70;6502.40
55331;DHT22;58851;42.984;20.336;2023-04-03T03:54:59;179.70;6502.40
55331;DHT22;58851;42.984;20.336;2023-04-03T03:57:25;179.70;6502.40
55331;DHT22;58851;42.984;20.336;2023-04-03T03:59:54;179.70;6502.40
55331;DHT22;58851;42.984;20.336;2023-04-03T04:02:20;179.60;230.40
55331;DHT22;58851;42.984;20.336;2023-04-03T04:04:46;179.60;6502.40
55331;DHT22;58851;42.984;20.336;2023-04-03T04:07:12;179.50;6502.40
55331;DHT22;58851;42.984;20.336;2023-04-03T04:09:38;179.50;6502.40
55331;DHT22;58851;42.984;20.336;2023-04-03T04:12:04;179.50;6502.40
55331;DHT22;58851;42.984;20.336;2023-04-03T04:14:29;179.50;6502.40
55331;DHT22;58851;42.984;20.336;2023-04-03T04:16:55;179.40;6502.40
55331;DHT22;58851;42.984;20.336;2023-04-03T04:19:21;179.40;6502.40
55331;DHT22;58851;42.984;20.336;2023-04-03T04:21:47;179.50;6502.40
55331;DHT22;58851;42.984;20.336;2023-04-03T04:24:12;179.60;6502.40
55331;DHT22;58851;42.984;20.336;2023-04-03T04:26:38;179.60;6502.40
55331;DHT22;58851;42.984;20.336;2023-04-03T04:29:04;179.60;6502.40
55331;DHT22;58851;42.984;20.336;2023-04-03T04:31:30;179.60;6502.40
55331;DHT22;58851;42.984;20.336;2023-04-03T04:33:56;179.60;6502.40
55331;DHT22;58851;42.984;20.336;2023-04-03T04:36:21;179.60;6502.40
55331;DHT22;58851;42.984;20.336;2023-04-03T04:38:47;179.70;6502.40
55331;DHT22;58851;42.984;20.336;2023-04-03T04:41:13;179.60;6502.40
55331;DHT22;58851;42.984;20.336;2023-04-03T04:43:38;179.70;6502.40
55331;DHT22;58851;42.984;20.336;2023-04-03T04:46:06;179.70;6502.40
55331;DHT22;58851;42.984;20.336;2023-04-03T04:48:34;179.80;6502.40
55331;DHT22;58851;42.984;20.336;2023-04-03T04:51:00;179.80;6502.40
55331;DHT22;58851;42.984;20.336;2023-04-03T04:53:26;179.80;6502.40
55331;DHT22;58851;42.984;20.336;2023-04-03T04:55:52;179.90;6502.40
55331;DHT22;58851;42.984;20.336;2023-04-03T04:58:21;179.90;6502.40
55331;DHT22;58851;42.984;20.336;2023-04-03T05:00:47;179.90;6502.40
55331;DHT22;58851;42.984;20.336;2023-04-03T05:03:13;179.90;6502.40
55331;DHT22;58851;42.984;20.336;2023-04-03T05:05:38;180.10;281.60
55331;DHT22;58851;42.984;20.336;2023-04-03T05:08:04;180.10;332.80
55331;DHT22;58851;42.984;20.336;2023-04-03T05:10:31;180.10;6502.40
55331;DHT22;58851;42.984;20.336;2023-04-03T05:12:57;180.10;128.00
55331;DHT22;58851;42.984;20.336;2023-04-03T05:15:23;180.10;6502.40
55331;DHT22;58851;42.984;20.336;2023-04-03T05:17:49;180.10;6502.40
55331;DHT22;58851;42.984;20.336;2023-04-03T05:20:15;204.80;6502.40
55331;DHT22;58851;42.984;20.336;2023-04-03T05:22:41;180.10;6502.40
55331;DHT22;58851;42.984;20.336;2023-04-03T05:25:07;179.80;6502.40
55331;DHT22;58851;42.984;20.336;2023-04-03T05:27:33;179.70;6502.40
55331;DHT22;58851;42.984;20.336;2023-04-03T05:29:59;179.70;6502.40
55331;DHT22;58851;42.984;20.336;2023-04-03T05:32:25;179.70;6502.40
55331;DHT22;58851;42.984;20.336;2023-04-03T05:34:53;179.70;6502.40
55331;DHT22;58851;42.984;20.336;2023-04-03T05:37:19;179.70;6502.40
55331;DHT22;58851;42.984;20.336;2023-04-03T05:39:45;179.80;6502.40
55331;DHT22;58851;42.984;20.336;2023-04-03T05:42:11;179.90;6502.40
55331;DHT22;58851;42.984;20.336;2023-04-03T05:44:37;180.00;512.00
55331;DHT22;58851;42.984;20.336;2023-04-03T05:47:03;180.10;384.00
55331;DHT22;58851;42.984;20.336;2023-04-03T05:49:29;180.10;409.60
55331;DHT22;58851;42.984;20.336;2023-04-03T05:51:55;204.90;6502.40
55331;DHT22;58851;42.984;20.336;2023-04-03T05:54:26;205.00;6502.40
55331;DHT22;58851;42.984;20.336;2023-04-03T05:56:52;205.10;6502.40
55331;DHT22;58851;42.984;20.336;2023-04-03T05:59:19;205.20;6502.40
55331;DHT22;58851;42.984;20.336;2023-04-03T06:01:46;205.20;6502.40
55331;DHT22;58851;42.984;20.336;2023-04-03T06:04:12;205.30;6502.40
55331;DHT22;58851;42.984;20.336;2023-04-03T06:06:47;205.30;6502.40
55331;DHT22;58851;42.984;20.336;2023-04-03T06:09:14;205.30;6502.40
55331;DHT22;58851;42.984;20.336;2023-04-03T06:11:40;205.40;6502.40
55331;DHT22;58851;42.984;20.336;2023-04-03T06:14:07;205.30;6502.40
55331;DHT22;58851;42.984;20.336;2023-04-03T06:16:33;205.60;6502.40
55331;DHT22;58851;42.984;20.336;2023-04-03T06:18:59;205.60;563.20
55331;DHT22;58851;42.984;20.336;2023-04-03T06:21:25;205.70;6502.40
55331;DHT22;58851;42.984;20.336;2023-04-03T06:23:51;205.70;6502.40
55331;DHT22;58851;42.984;20.336;2023-04-03T06:26:17;230.40;6502.40
55331;DHT22;58851;42.984;20.336;2023-04-03T06:28:43;230.60;6502.40
55331;DHT22;58851;42.984;20.336;2023-04-03T06:31:09;230.60;6502.40
55331;DHT22;58851;42.984;20.336;2023-04-03T06:33:35;230.70;6502.40
55331;DHT22;58851;42.984;20.336;2023-04-03T06:36:04;230.90;6502.40
55331;DHT22;58851;42.984;20.336;2023-04-03T06:38:31;231.10;6502.40
55331;DHT22;58851;42.984;20.336;2023-04-03T06:40:58;231.20;6502.40
55331;DHT22;58851;42.984;20.336;2023-04-03T06:43:24;231.30;6502.40
55331;DHT22;58851;42.984;20.336;2023-04-03T06:45:50;256.20;460.80
55331;DHT22;58851;42.984;20.336;2023-04-03T06:48:16;256.20;6502.40
55331;DHT22;58851;42.984;20.336;2023-04-03T06:50:42;256.50;6502.40
55331;DHT22;58851;42.984;20.336;2023-04-03T06:53:08;256.60;6502.40
55331;DHT22;58851;42.984;20.336;2023-04-03T06:55:33;256.50;6502.40
55331;DHT22;58851;42.984;20.336;2023-04-03T06:57:59;256.50;6502.40
55331;DHT22;58851;42.984;20.336;2023-04-03T07:00:26;256.50;6502.40
55331;DHT22;58851;42.984;20.336;2023-04-03T07:02:51;256.40;6502.40
55331;DHT22;58851;42.984;20.336;2023-04-03T07:05:18;256.70;6502.40
55331;DHT22;58851;42.984;20.336;2023-04-03T07:07:43;256.80;6502.40
55331;DHT22;58851;42.984;20.336;2023-04-03T07:10:10;256.70;6502.40
55331;DHT22;58851;42.984;20.336;2023-04-03T07:12:37;256.50;6502.40
55331;DHT22;58851;42.984;20.336;2023-04-03T07:15:04;256.70;6502.40
55331;DHT22;58851;42.984;20.336;2023-04-03T07:17:30;256.50;6502.40
55331;DHT22;58851;42.984;20.336;2023-04-03T07:19:56;256.40;6502.40
55331;DHT22;58851;42.984;20.336;2023-04-03T07:22:22;256.70;6502.40
55331;DHT22;58851;42.984;20.336;2023-04-03T07:24:48;256.70;6502.40
55331;DHT22;58851;42.984;20.336;2023-04-03T07:27:13;256.60;6502.40
55331;DHT22;58851;42.984;20.336;2023-04-03T07:29:39;256.40;6502.40
55331;DHT22;58851;42.984;20.336;2023-04-03T07:32:05;256.30;6502.40
55331;DHT22;58851;42.984;20.336;2023-04-03T07:34:32;256.30;6502.40
55331;DHT22;58851;42.984;20.336;2023-04-03T07:36:58;256.20;6502.40
55331;DHT22;58851;42.984;20.336;2023-04-03T07:39:24;256.20;6502.40
55331;DHT22;58851;42.984;20.336;2023-04-03T07:41:50;256.30;6502.40
55331;DHT22;58851;42.984;20.336;2023-04-03T07:44:17;256.40;6502.40
55331;DHT22;58851;42.984;20.336;2023-04-03T07:46:43;256.40;6502.40
55331;DHT22;58851;42.984;20.336;2023-04-03T07:49:08;256.20;6502.40
55331;DHT22;58851;42.984;20.336;2023-04-03T07:51:34;256.10;6502.40
55331;DHT22;58851;42.984;20.336;2023-04-03T07:54:00;256.10;6502.40
55331;DHT22;58851;42.984;20.336;2023-04-03T07:56:26;256.20;6502.40
55331;DHT22;58851;42.984;20.336;2023-04-03T07:58:52;256.30;6502.40
55331;DHT22;58851;42.984;20.336;2023-04-03T08:01:19;256.40;6502.40
55331;DHT22;58851;42.984;20.336;2023-04-03T08:03:44;256.50;6502.40
55331;DHT22;58851;42.984;20.336;2023-04-03T08:06:10;256.30;6502.40
55331;DHT22;58851;42.984;20.336;2023-04-03T08:08:36;256.50;6502.40
55331;DHT22;58851;42.984;20.336;2023-04-03T08:11:02;256.50;6502.40
55331;DHT22;58851;42.984;20.336;2023-04-03T08:13:29;256.50;6502.40
55331;DHT22;58851;42.984;20.336;2023-04-03T08:15:56;256.50;6502.40
55331;DHT22;58851;42.984;20.336;2023-04-03T08:18:23;256.60;6502.40
55331;DHT22;58851;42.984;20.336;2023-04-03T08:20:50;256.60;6502.40
55331;DHT22;58851;42.984;20.336;2023-04-03T08:23:17;256.70;6502.40
55331;DHT22;58851;42.984;20.336;2023-04-03T08:25:44;256.60;6502.40
55331;DHT22;58851;42.984;20.336;2023-04-03T08:28:11;256.40;6502.40
55331;DHT22;58851;42.984;20.336;2023-04-03T08:30:40;256.20;6502.40
55331;DHT22;58851;42.984;20.336;2023-04-03T08:33:06;256.30;6502.40
55331;DHT22;58851;42.984;20.336;2023-04-03T08:35:32;256.30;6502.40
55331;DHT22;58851;42.984;20.336;2023-04-03T08:37:58;256.20;6502.40
55331;DHT22;58851;42.984;20.336;2023-04-03T08:40:24;256.20;6502.40
55331;DHT22;58851;42.984;20.336;2023-04-03T08:45:33;256.40;6502.40
55331;DHT22;58851;42.984;20.336;2023-04-03T08:48:35;256.20;6502.40
55331;DHT22;58851;42.984;20.336;2023-04-03T08:51:04;256.10;6502.40
55331;DHT22;58851;42.984;20.336;2023-04-03T08:53:42;256.00;6502.40
55331;DHT22;58851;42.984;20.336;2023-04-03T08:56:10;256.10;6502.40
55331;DHT22;58851;42.984;20.336;2023-04-03T08:58:49;256.20;6502.40
55331;DHT22;58851;42.984;20.336;2023-04-03T09:01:29;256.10;6502.40
55331;DHT22;58851;42.984;20.336;2023-04-03T09:04:01;256.10;6502.40
55331;DHT22;58851;42.984;20.336;2023-04-03T09:06:31;256.00;6502.40
55331;DHT22;58851;42.984;20.336;2023-04-03T09:11:57;231.30;6502.40
55331;DHT22;58851;42.984;20.336;2023-04-03T09:17:17;231.20;6502.40
55331;DHT22;58851;42.984;20.336;2023-04-03T09:20:02;231.30;307.20
55331;DHT22;58851;42.984;20.336;2023-04-03T09:22:32;231.20;256.00
55331;DHT22;58851;42.984;20.336;2023-04-03T09:25:14;256.00;6502.40
55331;DHT22;58851;42.984;20.336;2023-04-03T09:27:41;231.30;6502.40
55331;DHT22;58851;42.984;20.336;2023-04-03T09:30:16;256.00;6502.40
55331;DHT22;58851;42.984;20.336;2023-04-03T09:32:45;256.10;6502.40
55331;DHT22;58851;42.984;20.336;2023-04-03T09:35:29;256.20;6502.40
55331;DHT22;58851;42.984;20.336;2023-04-03T09:38:17;256.20;6502.40
55331;DHT22;58851;42.984;20.336;2023-04-03T09:41:05;256.30;6502.40
55331;DHT22;58851;42.984;20.336;2023-04-03T09:43:33;256.30;6502.40
55331;DHT22;58851;42.984;20.336;2023-04-03T09:49:02;256.20;6502.40
55331;DHT22;58851;42.984;20.336;2023-04-03T09:51:30;256.20;6502.40
55331;DHT22;58851;42.984;20.336;2023-04-03T09:53:57;256.10;6502.40
55331;DHT22;58851;42.984;20.336;2023-04-03T09:56:30;256.10;6502.40
55331;DHT22;58851;42.984;20.336;2023-04-03T10:04:05;256.20;6502.40
55331;DHT22;58851;42.984;20.336;2023-04-03T10:06:34;256.20;6502.40
55331;DHT22;58851;42.984;20.336;2023-04-03T10:09:07;256.20;6502.40
55331;DHT22;58851;42.984;20.336;2023-04-03T10:14:22;256.20;6502.40
55331;DHT22;58851;42.984;20.336;2023-04-03T10:22:16;231.10;6502.40
55331;DHT22;58851;42.984;20.336;2023-04-03T10:25:03;231.20;6502.40
55331;DHT22;58851;42.984;20.336;2023-04-03T10:28:36;231.10;6502.40
55331;DHT22;58851;42.984;20.336;2023-04-03T10:36:28;230.70;6502.40
55331;DHT22;58851;42.984;20.336;2023-04-03T10:58:50;230.60;6502.40
55331;DHT22;58851;42.984;20.336;2023-04-03T11:01:24;230.80;6502.40
55331;DHT22;58851;42.984;20.336;2023-04-03T11:03:58;230.80;6502.40
55331;DHT22;58851;42.984;20.336;2023-04-03T11:06:30;230.70;6502.40
55331;DHT22;58851;42.984;20.336;2023-04-03T11:09:04;230.90;6502.40
55331;DHT22;58851;42.984;20.336;2023-04-03T11:11:37;230.90;6502.40
55331;DHT22;58851;42.984;20.336;2023-04-03T11:14:15;231.00;6502.40
55331;DHT22;58851;42.984;20.336;2023-04-03T11:16:46;230.90;6502.40
55331;DHT22;58851;42.984;20.336;2023-04-03T11:19:22;230.80;6502.40
55331;DHT22;58851;42.984;20.336;2023-04-03T11:22:00;230.70;6502.40
55331;DHT22;58851;42.984;20.336;2023-04-03T11:24:30;230.80;6502.40
55331;DHT22;58851;42.984;20.336;2023-04-03T11:26:58;230.70;6502.40
55331;DHT22;58851;42.984;20.336;2023-04-03T11:29:37;230.70;6502.40
55331;DHT22;58851;42.984;20.336;2023-04-03T11:34:54;230.60;6502.40
55331;DHT22;58851;42.984;20.336;2023-04-03T11:37:46;230.60;6502.40
55331;DHT22;58851;42.984;20.336;2023-04-03T11:42:54;230.50;6502.40
55331;DHT22;58851;42.984;20.336;2023-04-03T11:50:58;230.40;6502.40
55331;DHT22;58851;42.984;20.336;2023-04-03T11:53:36;205.60;6502.40
55331;DHT22;58851;42.984;20.336;2023-04-03T12:01:46;205.30;6502.40
55331;DHT22;58851;42.984;20.336;2023-04-03T12:04:12;205.10;6502.40
55331;DHT22;58851;42.984;20.336;2023-04-03T12:06:50;205.00;6502.40
55331;DHT22;58851;42.984;20.336;2023-04-03T12:09:23;205.10;6502.40
55331;DHT22;58851;42.984;20.336;2023-04-03T12:11:50;205.10;6502.40
55331;DHT22;58851;42.984;20.336;2023-04-03T12:14:17;204.90;6502.40
55331;DHT22;58851;42.984;20.336;2023-04-03T12:16:46;204.90;6502.40
55331;DHT22;58851;42.984;20.336;2023-04-03T12:24:30;204.80;6502.40
55331;DHT22;58851;42.984;20.336;2023-04-03T12:43:38;179.70;6502.40
55331;DHT22;58851;42.984;20.336;2023-04-03T12:51:38;179.80;6502.40
55331;DHT22;58851;42.984;20.336;2023-04-03T12:57:08;179.90;6502.40
55331;DHT22;58851;42.984;20.336;2023-04-03T12:59:33;179.90;563.20
55331;DHT22;58851;42.984;20.336;2023-04-03T13:02:00;180.00;537.60
55331;DHT22;58851;42.984;20.336;2023-04-03T13:04:31;180.10;409.60
55331;DHT22;58851;42.984;20.336;2023-04-03T13:06:57;179.90;6502.40
55331;DHT22;58851;42.984;20.336;2023-04-03T13:09:31;179.80;6502.40
55331;DHT22;58851;42.984;20.336;2023-04-03T13:12:12;179.90;537.60
55331;DHT22;58851;42.984;20.336;2023-04-03T13:14:38;180.00;6502.40
55331;DHT22;58851;42.984;20.336;2023-04-03T13:17:12;179.90;6502.40
55331;DHT22;58851;42.984;20.336;2023-04-03T13:19:39;179.90;6502.40
55331;DHT22;58851;42.984;20.336;2023-04-03T13:22:36;179.90;179.20
55331;DHT22;58851;42.984;20.336;2023-04-03T13:25:11;179.70;6502.40
55331;DHT22;58851;42.984;20.336;2023-04-03T13:27:39;179.80;6502.40
55331;DHT22;58851;42.984;20.336;2023-04-03T13:30:36;179.70;6502.40
55331;DHT22;58851;42.984;20.336;2023-04-03T13:33:26;179.60;6502.40
55331;DHT22;58851;42.984;20.336;2023-04-03T13:36:16;179.60;6502.40
55331;DHT22;58851;42.984;20.336;2023-04-03T13:38:43;179.50;6502.40
55331;DHT22;58851;42.984;20.336;2023-04-03T13:41:26;179.50;6502.40
55331;DHT22;58851;42.984;20.336;2023-04-03T13:43:52;179.60;6502.40
55331;DHT22;58851;42.984;20.336;2023-04-03T13:48:46;179.60;6502.40
55331;DHT22;58851;42.984;20.336;2023-04-03T13:53:48;179.50;486.40
55331;DHT22;58851;42.984;20.336;2023-04-03T13:56:32;179.60;6502.40
55331;DHT22;58851;42.984;20.336;2023-04-03T14:01:54;179.60;128.00
55331;DHT22;58851;42.984;20.336;2023-04-03T14:04:27;179.70;128.00
55331;DHT22;58851;42.984;20.336;2023-04-03T14:06:54;179.70;6502.40
55331;DHT22;58851;42.984;20.336;2023-04-03T14:09:23;179.70;6502.40
55331;DHT22;58851;42.984;20.336;2023-04-03T14:11:53;179.60;6502.40
55331;DHT22;58851;42.984;20.336;2023-04-03T14:14:31;179.70;128.00
55331;DHT22;58851;42.984;20.336;2023-04-03T14:17:00;179.60;6502.40
55331;DHT22;58851;42.984;20.336;2023-04-03T14:19:34;179.50;128.00
55331;DHT22;58851;42.984;20.336;2023-04-03T14:22:01;179.40;6502.40
55331;DHT22;58851;42.984;20.336;2023-04-03T14:24:29;179.40;358.40
55331;DHT22;58851;42.984;20.336;2023-04-03T14:26:55;179.40;6502.40
55331;DHT22;58851;42.984;20.336;2023-04-03T14:29:22;179.50;204.80
55331;DHT22;58851;42.984;20.336;2023-04-03T14:31:48;179.50;204.80
55331;DHT22;58851;42.984;20.336;2023-04-03T14:34:15;179.70;6502.40
55331;DHT22;58851;42.984;20.336;2023-04-03T14:36:43;179.70;6502.40
55331;DHT22;58851;42.984;20.336;2023-04-03T14:39:27;179.70;6502.40
55331;DHT22;58851;42.984;20.336;2023-04-03T14:41:53;179.50;153.60
55331;DHT22;58851;42.984;20.336;2023-04-03T14:44:19;179.50;6502.40
55331;DHT22;58851;42.984;20.336;2023-04-03T14:46:45;179.50;6502.40
55331;DHT22;58851;42.984;20.336;2023-04-03T14:49:15;179.50;6502.40
55331;DHT22;58851;42.984;20.336;2023-04-03T14:51:43;179.40;6528.00
55331;DHT22;58851;42.984;20.336;2023-04-03T14:54:15;179.30;6528.00
55331;DHT22;58851;42.984;20.336;2023-04-03T14:56:42;179.40;6502.40
55331;DHT22;58851;42.984;20.336;2023-04-03T14:59:12;179.40;128.00
55331;DHT22;58851;42.984;20.336;2023-04-03T15:01:38;179.30;153.60
55331;DHT22;58851;42.984;20.336;2023-04-03T15:04:15;179.30;6502.40
55331;DHT22;58851;42.984;20.336;2023-04-03T15:06:41;179.30;6502.40
55331;DHT22;58851;42.984;20.336;2023-04-03T15:09:27;179.30;6502.40
55331;DHT22;58851;42.984;20.336;2023-04-03T15:11:54;179.20;6502.40
55331;DHT22;58851;42.984;20.336;2023-04-03T15:14:20;154.50;6502.40
55331;DHT22;58851;42.984;20.336;2023-04-03T15:16:46;179.30;6502.40
55331;DHT22;58851;42.984;20.336;2023-04-03T15:19:12;179.20;6502.40
55331;DHT22;58851;42.984;20.336;2023-04-03T15:21:38;154.50;6502.40
55331;DHT22;58851;42.984;20.336;2023-04-03T15:24:04;154.50;6502.40
55331;DHT22;58851;42.984;20.336;2023-04-03T15:26:31;154.50;6502.40
55331;DHT22;58851;42.984;20.336;2023-04-03T15:28:57;154.40;6502.40
55331;DHT22;58851;42.984;20.336;2023-04-03T15:31:22;154.40;6502.40
55331;DHT22;58851;42.984;20.336;2023-04-03T15:33:48;154.40;6502.40
55331;DHT22;58851;42.984;20.336;2023-04-03T15:36:14;154.30;6502.40
55331;DHT22;58851;42.984;20.336;2023-04-03T15:38:40;154.20;6502.40
55331;DHT22;58851;42.984;20.336;2023-04-03T15:41:06;154.20;6502.40
55331;DHT22;58851;42.984;20.336;2023-04-03T15:43:31;154.10;6502.40
55331;DHT22;58851;42.984;20.336;2023-04-03T15:45:59;154.10;6502.40
55331;DHT22;58851;42.984;20.336;2023-04-03T15:48:26;154.10;6502.40
55331;DHT22;58851;42.984;20.336;2023-04-03T15:50:53;153.80;6502.40
55331;DHT22;58851;42.984;20.336;2023-04-03T15:53:19;153.60;6502.40
55331;DHT22;58851;42.984;20.336;2023-04-03T15:55:45;153.70;6502.40
55331;DHT22;58851;42.984;20.336;2023-04-03T15:58:11;128.80;896.00
55331;DHT22;58851;42.984;20.336;2023-04-03T16:00:37;128.70;870.40
55331;DHT22;58851;42.984;20.336;2023-04-03T16:03:11;128.90;6502.40
55331;DHT22;58851;42.984;20.336;2023-04-03T16:05:38;153.70;6502.40
55331;DHT22;58851;42.984;20.336;2023-04-03T16:08:05;128.80;128.00
55331;DHT22;58851;42.984;20.336;2023-04-03T16:10:34;128.80;563.20
55331;DHT22;58851;42.984;20.336;2023-04-03T16:13:00;153.60;128.00
55331;DHT22;58851;42.984;20.336;2023-04-03T16:15:26;128.80;844.80
55331;DHT22;58851;42.984;20.336;2023-04-03T16:17:53;128.90;128.00
55331;DHT22;58851;42.984;20.336;2023-04-03T16:20:19;128.40;2252.80
55331;DHT22;58851;42.984;20.336;2023-04-03T16:22:45;128.20;2252.80
55331;DHT22;58851;42.984;20.336;2023-04-03T16:25:11;128.00;2252.80
55331;DHT22;58851;42.984;20.336;2023-04-03T16:27:37;128.10;2252.80
55331;DHT22;58851;42.984;20.336;2023-04-03T16:30:04;128.00;2252.80
55331;DHT22;58851;42.984;20.336;2023-04-03T16:32:31;128.10;2252.80
55331;DHT22;58851;42.984;20.336;2023-04-03T16:34:57;128.30;2252.80
55331;DHT22;58851;42.984;20.336;2023-04-03T16:37:23;128.10;2252.80
55331;DHT22;58851;42.984;20.336;2023-04-03T16:39:49;128.10;2252.80